Time;durP1;ratioP1;P1;durP2;ratioP2;P2;SDS_P1;SDS_P2;PMS_P1;PMS_P2;Temp;Humidity;BMP_temperature;BMP_pressure;BME280_temperature;BME280_humidity;BME280_pressure;Samples;Min_cycle;Max_cycle;Signal;HPM_P1;HPM_P2
2022/05/14 00:01:09;;;;;;;15.05;1.15;;;;;;;15.70;66.42;101666.13;7386109;19;20082;-67
2022/05/14 00:03:38;;;;;;;8.90;1.17;;;;;;;15.68;66.87;101660.16;7389123;19;20014;-69
2022/05/14 00:06:09;;;;;;;14.35;1.65;;;;;;;15.69;68.12;101664.47;7386570;19;20359;-70
2022/05/14 00:08:37;;;;;;;9.90;1.48;;;;;;;15.73;67.25;101671.09;7389146;19;20095;-69
2022/05/14 00:13:45;;;;;;;9.20;1.00;;;;;;;15.70;68.52;101671.41;7386213;19;20022;-67
2022/05/14 00:16:14;;;;;;;7.60;1.15;;;;;;;15.69;67.23;101674.25;7390174;19;20017;-68
2022/05/14 00:18:42;;;;;;;7.72;1.27;;;;;;;15.66;67.14;101672.75;7391161;19;20014;-68
2022/05/14 00:21:11;;;;;;;10.35;2.15;;;;;;;15.62;68.33;101660.81;7385825;19;20015;-68
2022/05/14 00:23:38;;;;;;;9.98;1.10;;;;;;;15.62;67.60;101657.31;7388437;19;20014;-68
2022/05/14 00:26:06;;;;;;;12.30;1.15;;;;;;;15.56;67.69;101663.28;7387419;19;20031;-69
2022/05/14 00:28:34;;;;;;;7.90;0.82;;;;;;;15.54;67.81;101660.00;7388506;19;20015;-67
2022/05/14 00:31:01;;;;;;;14.13;1.30;;;;;;;15.56;67.96;101676.56;7385537;19;20018;-70
2022/05/14 00:33:28;;;;;;;14.02;1.02;;;;;;;15.58;67.95;101672.75;7388821;19;20021;-68
2022/05/14 00:35:55;;;;;;;9.63;1.63;;;;;;;15.52;67.24;101669.91;7386034;19;20476;-68
2022/05/14 00:38:22;;;;;;;12.13;1.45;;;;;;;15.45;67.77;101660.91;7389142;19;20014;-69
2022/05/14 00:41:00;;;;;;;12.88;1.15;;;;;;;15.45;68.46;101663.56;7385656;19;20006;-68
2022/05/14 00:43:28;;;;;;;10.77;2.15;;;;;;;15.48;67.97;101663.25;7383226;19;20055;-69
2022/05/14 00:46:03;;;;;;;12.80;1.27;;;;;;;15.50;68.07;101655.94;7384815;19;20014;-67
2022/05/14 00:48:34;;;;;;;11.63;1.17;;;;;;;15.46;67.85;101658.09;7384934;19;20003;-68
2022/05/14 00:51:02;;;;;;;11.48;1.40;;;;;;;15.45;69.08;101668.88;7389135;19;20015;-67
2022/05/14 00:53:35;;;;;;;8.25;1.33;;;;;;;15.45;68.71;101675.00;7385167;19;20756;-69
2022/05/14 00:56:07;;;;;;;6.00;1.00;;;;;;;15.44;68.13;101675.19;7389787;19;20098;-69
2022/05/14 00:58:49;;;;;;;9.88;1.20;;;;;;;15.38;68.16;101666.91;7385175;19;20018;-69
2022/05/14 01:01:16;;;;;;;7.95;1.10;;;;;;;15.33;68.30;101673.69;7386458;19;20021;-68
2022/05/14 01:03:44;;;;;;;15.65;1.13;;;;;;;15.29;69.22;101675.81;7385739;19;20006;-67
2022/05/14 01:06:16;;;;;;;7.70;0.93;;;;;;;15.23;69.28;101670.34;7388855;19;20021;-68
2022/05/14 01:08:44;;;;;;;6.53;1.50;;;;;;;15.14;69.09;101681.91;7389312;19;20473;-69
2022/05/14 01:11:18;;;;;;;10.63;1.35;;;;;;;15.05;69.44;101682.88;7388423;19;20057;-67
2022/05/14 01:13:49;;;;;;;11.35;1.40;;;;;;;15.00;69.65;101686.00;7386515;19;20014;-69
2022/05/14 01:16:16;;;;;;;10.27;1.23;;;;;;;14.97;70.68;101679.22;7385781;19;20031;-68
2022/05/14 01:18:44;;;;;;;16.55;1.85;;;;;;;14.97;70.25;101679.22;7383364;19;20078;-68
2022/05/14 01:21:34;;;;;;;5.95;1.08;;;;;;;14.93;69.54;101679.69;7384132;19;20017;-67
2022/05/14 01:26:59;;;;;;;13.15;2.17;;;;;;;14.81;70.62;101686.25;7382368;19;20014;-68
2022/05/14 01:29:27;;;;;;;10.10;1.10;;;;;;;14.84;70.86;101689.41;7386342;19;20014;-68
2022/05/14 01:31:55;;;;;;;11.50;1.33;;;;;;;14.83;70.15;101685.09;7385932;19;20399;-68
2022/05/14 01:34:26;;;;;;;9.80;1.23;;;;;;;14.82;70.33;101685.28;7388308;19;20017;-69
2022/05/14 01:36:53;;;;;;;12.57;1.27;;;;;;;14.83;70.12;101685.09;7382912;19;20011;-69
2022/05/14 01:39:20;;;;;;;10.52;0.93;;;;;;;14.83;70.22;101681.66;7385363;19;20014;-69
2022/05/14 01:41:47;;;;;;;7.15;1.40;;;;;;;14.82;70.67;101690.56;7384384;19;20011;-69
2022/05/14 01:44:14;;;;;;;13.23;1.67;;;;;;;14.84;70.76;101680.63;7381444;19;20007;-69
2022/05/14 01:46:52;;;;;;;10.23;1.38;;;;;;;14.86;70.37;101684.78;7386389;19;20022;-69
2022/05/14 01:49:19;;;;;;;8.57;1.02;;;;;;;14.85;70.54;101679.66;7385625;19;20011;-68
2022/05/14 01:51:47;;;;;;;4.13;0.90;;;;;;;14.82;70.43;101687.94;7384169;19;20033;-68
2022/05/14 01:54:15;;;;;;;14.30;2.35;;;;;;;14.76;71.56;101691.22;7386011;19;20385;-68
2022/05/14 01:56:42;;;;;;;10.75;2.10;;;;;;;14.75;71.29;101682.44;7390102;19;20006;-68
2022/05/14 01:59:10;;;;;;;11.02;1.90;;;;;;;14.75;70.81;101679.78;7391484;19;20010;-69
2022/05/14 02:01:38;;;;;;;14.88;1.70;;;;;;;14.76;71.08;101681.44;7391995;19;20086;-68
2022/05/14 02:04:09;;;;;;;12.05;1.35;;;;;;;14.73;71.29;101683.59;7389136;19;20038;-68
2022/05/14 02:06:37;;;;;;;17.23;4.95;;;;;;;14.70;72.25;101676.78;7390353;19;20029;-67
2022/05/14 02:09:08;;;;;;;9.85;1.98;;;;;;;14.70;72.49;101681.25;7394280;19;20328;-68
2022/05/14 02:11:39;;;;;;;6.72;1.00;;;;;;;14.68;71.49;101676.09;7391359;19;20516;-67
2022/05/14 02:14:06;;;;;;;11.52;1.42;;;;;;;14.68;71.31;101676.09;7388789;19;20042;-67
2022/05/14 02:16:34;;;;;;;9.48;2.75;;;;;;;14.68;71.48;101667.34;7391631;19;20669;-68
2022/05/14 02:19:01;;;;;;;6.93;1.45;;;;;;;14.69;71.51;101672.47;7391543;19;20843;-68
2022/05/14 02:21:29;;;;;;;14.00;1.88;;;;;;;14.69;71.86;101671.63;7393818;19;20022;-68
2022/05/14 02:23:56;;;;;;;9.48;1.63;;;;;;;14.65;71.89;101673.78;7389998;19;20014;-68
2022/05/14 02:26:23;;;;;;;8.52;1.33;;;;;;;14.63;71.46;101678.38;7392321;19;20035;-68
2022/05/14 02:28:51;;;;;;;8.32;1.20;;;;;;;14.51;71.84;101674.38;7395397;19;20018;-68
2022/05/14 02:31:18;;;;;;;7.40;1.27;;;;;;;14.46;71.93;101674.00;7391036;19;20383;-69
2022/05/14 02:33:45;;;;;;;12.27;1.50;;;;;;;14.46;72.36;101664.25;7388286;19;20340;-69
2022/05/14 02:36:12;;;;;;;8.48;1.20;;;;;;;14.45;73.04;101669.69;7391911;19;20014;-69
2022/05/14 02:38:40;;;;;;;7.65;1.00;;;;;;;14.43;73.19;101661.91;7391246;19;20052;-67
2022/05/14 02:41:08;;;;;;;8.38;1.33;;;;;;;14.44;72.32;101663.56;7388894;19;20015;-68
2022/05/14 02:43:35;;;;;;;5.60;1.10;;;;;;;14.42;72.32;101664.72;7389061;19;20014;-68
2022/05/14 02:46:03;;;;;;;10.15;1.45;;;;;;;14.40;72.45;101658.75;7391062;19;20034;-69
2022/05/14 02:48:31;;;;;;;12.98;4.50;;;;;;;14.36;72.87;101654.72;7388641;19;20455;-68
2022/05/14 02:51:00;;;;;;;6.60;1.23;;;;;;;14.35;74.14;101648.59;7391277;19;20095;-68
2022/05/14 02:53:27;;;;;;;14.88;1.50;;;;;;;14.32;72.95;101656.84;7391684;19;20521;-68
2022/05/14 02:55:54;;;;;;;13.05;1.48;;;;;;;14.31;72.97;101665.78;7392069;19;20014;-68
2022/05/14 03:00:58;;;;;;;10.05;1.48;;;;;;;14.24;72.79;101662.09;7390965;19;20006;-71
2022/05/14 03:03:26;;;;;;;8.75;1.83;;;;;;;14.23;74.87;101667.53;7388055;19;20479;-69
2022/05/14 03:05:53;;;;;;;10.80;1.70;;;;;;;14.23;73.72;101657.78;7392452;19;20026;-68
2022/05/14 03:08:20;;;;;;;11.18;1.25;;;;;;;14.21;73.06;101654.47;7392225;19;20017;-69
2022/05/14 03:10:47;;;;;;;10.48;1.20;;;;;;;14.21;73.12;101653.63;7390363;19;20014;-68
2022/05/14 03:13:14;;;;;;;12.07;1.55;;;;;;;14.21;73.07;101653.63;7388789;19;20039;-69
2022/05/14 03:15:41;;;;;;;7.75;1.80;;;;;;;14.16;73.29;101663.84;7388106;19;20031;-67
2022/05/14 03:18:08;;;;;;;13.18;1.75;;;;;;;14.13;74.59;101660.53;7389709;19;20301;-68
2022/05/14 03:20:35;;;;;;;10.13;1.85;;;;;;;14.09;73.85;101667.13;7392426;19;20017;-68
2022/05/14 03:23:02;;;;;;;12.70;1.33;;;;;;;14.08;74.13;101668.09;7388574;19;20010;-68
2022/05/14 03:25:29;;;;;;;15.18;1.40;;;;;;;14.05;73.88;101665.78;7388403;19;20017;-67
2022/05/14 03:27:56;;;;;;;9.52;1.67;;;;;;;14.04;74.20;101668.56;7388248;19;20070;-67
2022/05/14 03:30:23;;;;;;;13.05;1.98;;;;;;;14.03;74.24;101675.66;7393691;19;20027;-66
2022/05/14 03:32:50;;;;;;;18.42;2.45;;;;;;;14.00;74.17;101667.22;7389340;19;20027;-69
2022/05/14 03:35:17;;;;;;;14.23;2.03;;;;;;;14.03;74.68;101672.19;7390939;19;20014;-68
2022/05/14 03:37:45;;;;;;;15.77;1.63;;;;;;;14.04;74.21;101679.97;7387952;19;20033;-68
2022/05/14 03:40:12;;;;;;;13.13;2.05;;;;;;;14.00;74.08;101677.81;7390688;19;20022;-68
2022/05/14 03:42:39;;;;;;;14.55;2.53;;;;;;;14.04;74.47;101681.81;7390841;19;20135;-68
2022/05/14 03:45:07;;;;;;;11.23;1.67;;;;;;;14.05;74.45;101676.34;7385597;19;20010;-67
2022/05/14 03:47:33;;;;;;;12.30;2.05;;;;;;;14.07;74.35;101679.66;7390386;19;20015;-68
2022/05/14 03:50:00;;;;;;;7.20;1.15;;;;;;;14.08;74.44;101677.84;7391111;19;20011;-69
2022/05/14 03:52:27;;;;;;;11.85;1.42;;;;;;;14.05;73.68;101670.22;7389893;19;20025;-68
2022/05/14 03:54:54;;;;;;;10.45;1.30;;;;;;;14.00;74.09;101673.34;7387383;19;20011;-68
2022/05/14 03:57:21;;;;;;;17.52;1.83;;;;;;;13.96;74.20;101672.00;7388935;19;20738;-68
2022/05/14 03:59:48;;;;;;;10.55;1.45;;;;;;;13.96;74.43;101677.28;7387550;19;20122;-68
2022/05/14 04:02:15;;;;;;;7.43;1.38;;;;;;;13.94;74.26;101673.94;7387011;19;20014;-67
2022/05/14 04:04:43;;;;;;;11.93;1.92;;;;;;;13.96;74.33;101673.81;7386068;19;20043;-67
2022/05/14 04:07:10;;;;;;;7.95;1.30;;;;;;;13.94;74.36;101681.88;7388944;19;20488;-67
2022/05/14 04:09:37;;;;;;;7.45;1.15;;;;;;;13.91;74.25;101679.56;7391248;19;20029;-68
2022/05/14 04:12:04;;;;;;;12.50;1.23;;;;;;;13.91;74.14;101684.84;7391112;19;20015;-69
2022/05/14 04:14:31;;;;;;;11.27;1.50;;;;;;;13.87;74.32;101677.34;7386194;19;20089;-68
2022/05/14 04:16:59;;;;;;;12.52;1.58;;;;;;;13.82;74.71;101680.47;7384391;19;20619;-68
2022/05/14 04:19:26;;;;;;;12.88;1.70;;;;;;;13.79;74.77;101672.00;7387009;19;20021;-67
2022/05/14 04:21:53;;;;;;;8.55;1.20;;;;;;;13.73;74.56;101680.53;7387584;19;20485;-67
2022/05/14 04:24:20;;;;;;;15.27;1.40;;;;;;;13.68;74.79;101676.53;7385197;19;20010;-67
2022/05/14 04:26:47;;;;;;;11.18;1.70;;;;;;;13.62;75.00;101676.31;7388225;19;20007;-68
2022/05/14 04:29:14;;;;;;;10.15;1.75;;;;;;;13.57;75.37;101673.28;7385036;19;20090;-68
2022/05/14 04:31:41;;;;;;;11.48;1.70;;;;;;;13.56;76.63;101677.75;7387043;19;20030;-68
2022/05/14 04:34:08;;;;;;;9.52;1.30;;;;;;;13.57;75.76;101678.59;7390643;19;20032;-67
2022/05/14 04:36:35;;;;;;;11.02;1.42;;;;;;;13.56;75.75;101683.03;7385803;19;20010;-68
2022/05/14 04:39:02;;;;;;;12.70;1.60;;;;;;;13.57;75.89;101678.59;7389323;19;20010;-68
2022/05/14 04:41:30;;;;;;;9.30;2.28;;;;;;;13.50;76.06;101675.72;7385515;19;20014;-67
2022/05/14 04:43:58;;;;;;;15.40;1.80;;;;;;;13.49;76.24;101679.34;7389184;19;20018;-67
2022/05/14 04:46:26;;;;;;;11.43;2.30;;;;;;;13.50;77.86;101681.03;7386050;19;20018;-69
2022/05/14 04:48:53;;;;;;;10.60;1.63;;;;;;;13.50;76.89;101683.66;7386897;19;20003;-69
2022/05/14 04:51:21;;;;;;;8.13;1.13;;;;;;;13.51;76.86;101680.00;7385014;19;20007;-69
2022/05/14 04:53:46;;;;;;;10.52;1.60;;;;;;;13.53;76.90;101679.88;7388951;19;20018;-68
2022/05/14 04:56:13;;;;;;;14.13;1.90;;;;;;;13.50;77.01;101682.84;7386322;19;20015;-69
2022/05/14 04:58:40;;;;;;;8.45;1.33;;;;;;;13.49;77.17;101679.34;7385403;19;20017;-68
2022/05/14 05:01:07;;;;;;;8.55;1.33;;;;;;;13.55;77.09;101689.34;7386519;19;20090;-69
2022/05/14 05:03:34;;;;;;;11.05;1.80;;;;;;;13.63;77.02;101681.47;7384230;19;20029;-69
2022/05/14 05:06:04;;;;;;;10.60;1.35;;;;;;;13.67;77.07;101685.47;7384081;19;20014;-68
2022/05/14 05:08:33;;;;;;;7.43;1.00;;;;;;;13.66;76.69;101685.63;7385537;19;20021;-68
2022/05/14 05:11:00;;;;;;;9.20;1.40;;;;;;;13.61;76.63;101687.91;7384429;19;20006;-68
2022/05/14 05:13:30;;;;;;;12.15;2.50;;;;;;;13.59;76.86;101692.50;7384010;19;20282;-68
2022/05/14 05:15:55;;;;;;;9.77;1.63;;;;;;;13.64;78.65;101698.16;7384820;19;20697;-68
2022/05/14 05:18:23;;;;;;;9.05;1.40;;;;;;;13.62;77.83;101690.38;7384023;19;20026;-67
2022/05/14 05:20:52;;;;;;;14.05;1.95;;;;;;;13.62;77.44;101695.66;7384526;19;20019;-69
2022/05/14 05:23:21;;;;;;;9.57;1.33;;;;;;;13.64;77.34;101695.53;7384405;19;20011;-70
2022/05/14 05:25:49;;;;;;;11.70;1.67;;;;;;;13.65;77.49;101710.41;7381384;19;20102;-69
2022/05/14 05:28:16;;;;;;;9.27;1.52;;;;;;;13.65;76.76;101713.06;7383753;19;20014;-67
2022/05/14 05:30:43;;;;;;;7.72;1.83;;;;;;;13.65;77.71;101713.88;7387743;19;20010;-68
2022/05/14 05:33:14;;;;;;;6.93;1.58;;;;;;;13.63;77.38;101715.00;7393318;19;20344;-67
2022/05/14 05:35:41;;;;;;;9.20;1.00;;;;;;;13.64;77.50;101717.50;7395765;19;20014;-68
2022/05/14 05:38:08;;;;;;;17.60;2.15;;;;;;;13.66;77.69;101720.81;7392916;19;20014;-68
2022/05/14 05:40:36;;;;;;;13.70;2.28;;;;;;;13.61;77.76;101715.16;7393108;19;20578;-68
2022/05/14 05:43:05;;;;;;;11.45;2.08;;;;;;;13.59;77.79;101718.94;7394378;19;20011;-69
2022/05/14 05:45:33;;;;;;;12.23;1.98;;;;;;;13.61;79.01;101719.63;7392167;19;20057;-69
2022/05/14 05:48:01;;;;;;;9.50;2.08;;;;;;;13.64;78.41;101728.09;7389998;19;20512;-68
2022/05/14 05:50:28;;;;;;;9.32;1.88;;;;;;;13.69;77.83;101725.81;7391996;19;20130;-69
2022/05/14 05:52:55;;;;;;;8.90;0.95;;;;;;;13.67;77.64;101727.78;7391668;19;20016;-68
2022/05/14 05:58:03;;;;;;;12.60;2.00;;;;;;;13.61;78.34;101748.72;7391097;19;20033;-68
2022/05/14 06:00:31;;;;;;;10.90;1.52;;;;;;;13.63;78.41;101742.28;7392639;19;20019;-68
2022/05/14 06:02:59;;;;;;;10.05;1.40;;;;;;;13.70;78.17;101742.53;7391020;19;20014;-68
2022/05/14 06:05:27;;;;;;;12.30;1.33;;;;;;;13.72;77.95;101748.47;7389330;19;20051;-67
2022/05/14 06:07:54;;;;;;;9.80;1.27;;;;;;;13.72;77.99;101745.84;7390209;19;20025;-67
2022/05/14 06:10:22;;;;;;;12.02;2.28;;;;;;;13.72;77.71;101737.91;7393312;19;20035;-68
2022/05/14 06:12:50;;;;;;;11.50;2.97;;;;;;;13.76;78.11;101739.28;7391208;19;20035;-67
2022/05/14 06:15:19;;;;;;;6.45;1.30;;;;;;;13.78;78.88;101739.94;7391706;19;20562;-68
2022/05/14 06:17:50;;;;;;;11.75;1.85;;;;;;;13.76;78.39;101743.75;7389995;19;20007;-68
2022/05/14 06:20:18;;;;;;;13.27;1.60;;;;;;;13.76;78.10;101747.22;7388658;19;20027;-68
2022/05/14 06:22:45;;;;;;;12.70;1.63;;;;;;;13.76;78.17;101735.81;7395488;19;20009;-73
2022/05/14 06:25:12;;;;;;;12.70;1.52;;;;;;;13.76;78.20;101738.44;7388809;19;20082;-69
2022/05/14 06:27:40;;;;;;;13.50;3.05;;;;;;;13.84;78.28;101739.34;7392935;19;20017;-67
2022/05/14 06:30:08;;;;;;;11.48;2.00;;;;;;;13.96;79.69;101729.38;7390126;19;20472;-67
2022/05/14 06:32:36;;;;;;;8.18;1.40;;;;;;;14.01;78.19;101740.34;7391422;19;20018;-70
2022/05/14 06:35:08;;;;;;;8.57;1.55;;;;;;;14.05;77.54;101736.41;7390791;19;20006;-70
2022/05/14 06:37:35;;;;;;;9.40;2.00;;;;;;;14.09;77.55;101730.63;7390062;19;20500;-68
2022/05/14 06:40:03;;;;;;;6.20;1.50;;;;;;;14.16;77.55;101737.97;7390684;19;20015;-68
2022/05/14 06:42:32;;;;;;;19.60;2.55;;;;;;;14.19;77.68;101727.91;7389218;19;20027;-68
2022/05/14 06:44:59;;;;;;;10.27;1.98;;;;;;;14.30;78.68;101732.13;7393447;19;20010;-68
2022/05/14 06:47:26;;;;;;;14.48;2.00;;;;;;;14.35;77.69;101735.97;7386074;19;20026;-67
2022/05/14 06:49:53;;;;;;;14.73;2.35;;;;;;;14.39;77.06;101725.91;7391284;19;20109;-68
2022/05/14 06:52:20;;;;;;;11.63;2.35;;;;;;;14.44;76.98;101727.13;7390942;19;20113;-68
2022/05/14 06:54:52;;;;;;;13.38;2.22;;;;;;;14.48;76.72;101732.91;7390499;19;20092;-68
2022/05/14 06:57:20;;;;;;;7.57;1.98;;;;;;;14.51;76.77;101732.63;7391516;19;20014;-69
2022/05/14 06:59:47;;;;;;;12.52;2.38;;;;;;;14.55;78.20;101721.56;7390680;19;20366;-71
2022/05/14 07:02:15;;;;;;;12.95;2.17;;;;;;;14.55;76.45;101731.31;7387697;19;20009;-69
2022/05/14 07:07:20;;;;;;;15.98;4.25;;;;;;;14.50;76.73;101747.69;7393053;19;20070;-68
2022/05/14 07:09:49;;;;;;;12.13;2.35;;;;;;;14.54;76.53;101745.56;7393553;19;20023;-67
2022/05/14 07:12:16;;;;;;;16.40;6.60;;;;;;;14.52;76.76;101753.66;7387556;19;20006;-68
2022/05/14 07:14:44;;;;;;;18.33;4.05;;;;;;;14.58;79.48;101744.25;7387838;19;20585;-68
2022/05/14 07:17:11;;;;;;;18.05;2.70;;;;;;;14.62;77.47;101744.78;7387042;19;20030;-68
2022/05/14 07:19:39;;;;;;;17.90;3.13;;;;;;;14.61;76.43;101741.31;7387163;19;20014;-67
2022/05/14 07:22:07;;;;;;;14.02;2.65;;;;;;;14.65;76.59;101744.47;7387940;19;20031;-68
2022/05/14 07:24:34;;;;;;;16.00;2.83;;;;;;;14.68;76.76;101752.13;7389945;19;20137;-69
2022/05/14 07:27:03;;;;;;;13.23;3.63;;;;;;;14.68;76.42;101754.75;7387446;19;20021;-68
2022/05/14 07:29:31;;;;;;;20.13;3.90;;;;;;;14.74;77.49;101757.59;7389468;19;20074;-68
2022/05/14 07:31:58;;;;;;;19.85;4.10;;;;;;;14.86;76.80;101751.03;7387076;19;20015;-68
2022/05/14 07:34:26;;;;;;;12.35;3.28;;;;;;;15.00;75.70;101746.97;7389503;19;20052;-68
2022/05/14 07:37:01;;;;;;;16.08;2.85;;;;;;;15.18;75.05;101753.03;7387841;19;20021;-68
2022/05/14 07:39:34;;;;;;;12.82;2.67;;;;;;;15.41;74.38;101758.56;7389250;19;20010;-68
2022/05/14 07:42:28;;;;;;;14.63;2.50;;;;;;;15.65;73.67;101757.81;7389034;19;20014;-67
2022/05/14 07:44:59;;;;;;;13.65;3.20;;;;;;;15.77;72.78;101759.19;7388258;19;20011;-68
2022/05/14 07:47:28;;;;;;;11.35;3.05;;;;;;;15.78;72.29;101761.69;7384822;19;20712;-68
2022/05/14 07:49:56;;;;;;;20.17;3.53;;;;;;;15.92;72.13;101749.56;7386371;19;20487;-68
2022/05/14 07:52:24;;;;;;;13.45;2.85;;;;;;;15.98;71.87;101753.41;7386006;19;20435;-69
2022/05/14 07:54:51;;;;;;;16.65;3.08;;;;;;;15.97;71.34;101755.22;7389979;19;20018;-69
2022/05/14 07:57:18;;;;;;;10.68;3.45;;;;;;;15.95;71.40;101764.34;7391609;19;20014;-69
2022/05/14 07:59:46;;;;;;;14.60;3.15;;;;;;;15.88;71.31;101758.03;7386531;19;20074;-68
2022/05/14 08:02:22;;;;;;;14.32;3.20;;;;;;;15.85;71.53;101766.34;7388125;19;20035;-68
2022/05/14 08:04:49;;;;;;;13.70;2.85;;;;;;;15.83;71.59;101763.84;7385876;19;20011;-69
2022/05/14 08:07:16;;;;;;;12.45;2.47;;;;;;;15.86;71.79;101762.66;7387165;19;20018;-68
2022/05/14 08:09:44;;;;;;;17.00;3.38;;;;;;;15.85;71.75;101771.63;7392912;19;20014;-68
2022/05/14 08:12:11;;;;;;;17.92;5.53;;;;;;;15.87;71.92;101757.19;7387824;19;20010;-68
2022/05/14 08:17:08;;;;;;;15.68;2.72;;;;;;;15.91;71.41;101769.13;7385829;19;20035;-67
2022/05/14 08:19:35;;;;;;;18.50;2.40;;;;;;;15.99;71.42;101768.34;7384538;19;20019;-68
2022/05/14 08:24:40;;;;;;;11.43;2.70;;;;;;;16.05;70.14;101755.19;7387459;19;20503;-69
2022/05/14 08:27:09;;;;;;;13.15;2.28;;;;;;;16.09;70.07;101753.06;7385384;19;20006;-67
2022/05/14 08:29:41;;;;;;;13.10;2.20;;;;;;;16.10;69.98;101749.44;7390147;19;20015;-67
2022/05/14 08:32:09;;;;;;;23.25;3.33;;;;;;;16.12;69.76;101744.75;7388632;19;20010;-67
2022/05/14 08:34:37;;;;;;;11.77;2.97;;;;;;;16.12;69.80;101744.75;7387238;19;20014;-67
2022/05/14 08:37:05;;;;;;;11.48;2.55;;;;;;;16.14;69.80;101742.78;7389973;19;20034;-68
2022/05/14 08:39:33;;;;;;;12.52;2.95;;;;;;;16.16;70.15;101738.94;7386775;19;20111;-67
2022/05/14 08:42:00;;;;;;;12.80;1.58;;;;;;;16.19;70.18;101745.75;7386207;19;20018;-67
2022/05/14 08:44:32;;;;;;;12.90;2.85;;;;;;;16.24;71.34;101746.09;7384789;19;20037;-67
2022/05/14 08:47:04;;;;;;;9.07;1.77;;;;;;;16.31;69.99;101743.59;7382479;19;20014;-67
2022/05/14 08:49:41;;;;;;;10.25;1.55;;;;;;;16.38;69.27;101744.59;7384806;19;20018;-69
2022/05/14 08:52:15;;;;;;;13.27;2.15;;;;;;;16.43;69.19;101755.53;7384840;19;20546;-68
2022/05/14 08:54:42;;;;;;;9.90;2.05;;;;;;;16.47;69.44;101759.50;7386494;19;20027;-69
2022/05/14 08:57:18;;;;;;;16.15;2.05;;;;;;;16.50;69.52;101749.41;7389676;19;20003;-68
2022/05/14 08:59:53;;;;;;;11.77;1.98;;;;;;;16.59;69.61;101752.88;7384052;19;20491;-69
2022/05/14 09:02:30;;;;;;;10.75;1.70;;;;;;;16.76;68.67;101749.19;7384183;19;20014;-68
2022/05/14 09:05:01;;;;;;;16.23;1.50;;;;;;;17.29;67.87;101751.16;7393966;19;20408;-68
2022/05/14 09:07:28;;;;;;;14.88;1.92;;;;;;;17.87;65.66;101756.00;7394914;19;20021;-69
2022/05/14 09:09:57;;;;;;;9.43;1.38;;;;;;;18.29;63.03;101750.13;7397555;19;20024;-69
2022/05/14 09:12:29;;;;;;;7.57;2.03;;;;;;;18.63;61.36;101747.03;7395846;19;20014;-68
2022/05/14 09:15:00;;;;;;;16.88;1.73;;;;;;;18.74;60.92;101751.88;7394458;19;20014;-67
2022/05/14 09:17:30;;;;;;;10.90;1.57;;;;;;;18.83;60.42;101738.47;7396538;19;20042;-69
2022/05/14 09:19:59;;;;;;;15.70;2.08;;;;;;;18.84;60.51;101740.13;7391435;19;20077;-67
2022/05/14 09:22:38;;;;;;;12.63;1.40;;;;;;;18.86;60.10;101733.59;7393759;19;20091;-68
2022/05/14 09:25:25;;;;;;;8.43;2.22;;;;;;;18.86;60.44;101728.25;7393712;19;20773;-69
2022/05/14 09:27:57;;;;;;;11.07;1.73;;;;;;;18.78;59.97;101742.53;7392999;19;20019;-69
2022/05/14 09:30:26;;;;;;;15.53;2.13;;;;;;;18.77;61.39;101743.53;7392838;19;20015;-69
2022/05/14 09:32:54;;;;;;;8.68;1.20;;;;;;;18.77;60.81;101746.19;7393712;19;20264;-68
2022/05/14 09:35:25;;;;;;;11.05;1.55;;;;;;;18.75;59.76;101740.22;7395963;19;20027;-68
2022/05/14 09:38:07;;;;;;;12.93;1.85;;;;;;;18.76;60.18;101741.88;7391838;19;20027;-68
2022/05/14 09:40:35;;;;;;;10.77;1.73;;;;;;;18.78;60.21;101737.19;7393393;19;20026;-68
2022/05/14 09:43:15;;;;;;;11.43;1.58;;;;;;;18.78;60.52;101726.53;7393376;19;20015;-69
2022/05/14 09:45:56;;;;;;;12.38;1.70;;;;;;;18.78;59.82;101718.53;7391285;19;20027;-69
2022/05/14 09:48:32;;;;;;;8.52;1.45;;;;;;;18.84;60.43;101718.81;7387919;19;20017;-68
2022/05/14 09:51:08;;;;;;;12.55;1.58;;;;;;;18.86;60.36;101725.59;7391071;19;20014;-68
2022/05/14 09:53:40;;;;;;;12.65;1.85;;;;;;;18.92;60.45;101724.03;7393729;19;20020;-70
2022/05/14 09:56:23;;;;;;;16.52;1.73;;;;;;;18.97;59.18;101725.13;7391768;19;20081;-68
2022/05/14 09:59:01;;;;;;;10.20;1.83;;;;;;;19.05;58.98;101722.34;7393009;19;20010;-68
2022/05/14 10:01:43;;;;;;;14.63;1.55;;;;;;;19.07;58.51;101723.00;7382545;19;20579;-69
2022/05/14 10:04:28;;;;;;;10.35;1.17;;;;;;;19.15;57.66;101725.56;7388008;19;20026;-68
2022/05/14 10:07:04;;;;;;;12.13;1.33;;;;;;;19.20;58.16;101719.66;7386060;19;20015;-67
2022/05/14 10:09:46;;;;;;;9.07;1.38;;;;;;;19.17;57.55;101731.53;7390716;19;20006;-67
2022/05/14 10:12:15;;;;;;;6.22;1.25;;;;;;;19.10;57.23;101727.94;7388663;19;20335;-68
2022/05/14 10:15:03;;;;;;;12.75;1.60;;;;;;;19.04;58.00;101727.88;7390783;19;20014;-68
2022/05/14 10:17:51;;;;;;;10.43;1.52;;;;;;;19.10;57.12;101722.63;7392203;19;20130;-68
2022/05/14 10:20:40;;;;;;;11.60;1.45;;;;;;;19.16;56.80;101721.03;7389914;19;20026;-67
2022/05/14 10:27:06;;;;;;;9.55;1.17;;;;;;;19.26;56.61;101723.41;7390615;19;20010;-69
2022/05/14 10:29:36;;;;;;;9.70;1.35;;;;;;;19.33;57.49;101721.66;7394261;19;20228;-68
2022/05/14 10:32:13;;;;;;;8.30;1.20;;;;;;;19.36;57.00;101716.75;7390788;19;20018;-68
2022/05/14 10:35:03;;;;;;;8.90;1.30;;;;;;;19.39;55.63;101721.75;7391693;19;20501;-66
2022/05/14 10:37:43;;;;;;;6.88;0.93;;;;;;;19.41;55.33;101717.03;7390245;19;20015;-68
2022/05/14 10:40:20;;;;;;;10.52;1.45;;;;;;;19.41;54.55;101714.34;7388689;19;20126;-69
2022/05/14 10:42:53;;;;;;;10.25;1.30;;;;;;;19.43;55.14;101719.53;7388503;19;20105;-69
2022/05/14 10:45:28;;;;;;;10.10;1.15;;;;;;;19.44;55.50;101710.50;7389348;19;20018;-67
2022/05/14 10:48:27;;;;;;;8.15;1.40;;;;;;;19.41;55.94;101710.84;7389099;19;20517;-68
2022/05/14 10:50:54;;;;;;;8.23;1.20;;;;;;;19.38;55.93;101721.94;7393217;19;20029;-68
2022/05/14 10:53:22;;;;;;;9.63;1.60;;;;;;;19.43;55.42;101717.69;7388440;19;20015;-67
2022/05/14 10:56:05;;;;;;;9.27;1.25;;;;;;;19.53;55.65;101722.75;7389286;19;20106;-68
2022/05/14 10:58:43;;;;;;;7.60;1.20;;;;;;;19.68;54.13;101712.00;7386261;19;20010;-68
2022/05/14 11:01:26;;;;;;;10.73;1.33;;;;;;;19.72;53.69;101708.75;7388236;19;20356;-68
2022/05/14 11:03:58;;;;;;;11.40;2.03;;;;;;;19.70;55.94;101700.13;7387339;19;20081;-68
2022/05/14 11:06:31;;;;;;;9.45;1.95;;;;;;;19.73;55.00;101710.41;7389215;19;20010;-69
2022/05/14 11:08:59;;;;;;;8.77;0.93;;;;;;;19.76;53.08;101704.66;7394955;19;20444;-67
2022/05/14 11:11:29;;;;;;;9.23;1.00;;;;;;;19.76;53.28;101707.34;7390585;19;20006;-69
2022/05/14 11:14:08;;;;;;;15.60;1.73;;;;;;;19.79;53.51;101708.81;7393466;19;20022;-70
2022/05/14 11:16:45;;;;;;;20.65;1.80;;;;;;;19.82;52.63;101701.25;7385013;19;20057;-67
2022/05/14 11:19:26;;;;;;;6.70;1.50;;;;;;;19.79;53.28;101701.63;7390084;19;20018;-70
2022/05/14 11:21:55;;;;;;;8.27;1.30;;;;;;;19.82;53.12;101703.91;7388515;19;20030;-69
2022/05/14 11:24:35;;;;;;;5.18;1.10;;;;;;;19.85;51.48;101698.22;7390176;19;20362;-69
2022/05/14 11:27:03;;;;;;;6.20;1.33;;;;;;;19.85;50.53;101697.38;7387035;19;20048;-69
2022/05/14 11:29:45;;;;;;;25.83;5.95;;;;;;;19.87;51.56;101696.16;7389568;19;20481;-68
2022/05/14 11:32:15;;;;;;;10.93;2.03;;;;;;;19.91;51.19;101694.75;7388647;19;20014;-68
2022/05/14 11:34:56;;;;;;;8.90;1.80;;;;;;;19.90;52.31;101684.28;7388093;19;20477;-68
2022/05/14 11:37:27;;;;;;;;;;;;;;;19.94;50.49;101689.03;7389670;19;20013;-68
2022/05/14 11:40:04;;;;;;;7.40;1.05;;;;;;;19.89;50.52;101687.97;7387765;19;20337;-68
2022/05/14 11:42:33;;;;;;;10.75;1.48;;;;;;;19.89;51.93;101686.13;7387339;19;20025;-69
2022/05/14 11:45:11;;;;;;;12.32;1.60;;;;;;;19.86;51.58;101683.81;7390256;19;20029;-68
2022/05/14 11:47:51;;;;;;;5.72;1.23;;;;;;;19.95;52.27;101676.50;7387140;19;20014;-67
2022/05/14 11:50:25;;;;;;;11.07;1.23;;;;;;;20.07;55.15;101674.94;7390834;19;20029;-67
2022/05/14 11:52:58;;;;;;;12.82;1.40;;;;;;;20.14;52.48;101675.00;7387902;19;20002;-68
2022/05/14 11:55:27;;;;;;;;;;;;;;;20.20;52.27;101674.22;7391591;19;20025;-68